sensor_id;sensor_type;location;lat;lon;timestamp;pressure;altitude;pressure_sealevel;temperature;humidity
41706;BME280;27385;51.096;17.190;2023-12-14T00:02:23;99082.98;;;5.05;100.00
41706;BME280;27385;51.096;17.190;2023-12-14T00:05:14;99086.00;;;5.05;100.00
41706;BME280;27385;51.096;17.190;2023-12-14T00:08:05;99084.80;;;5.05;100.00
41706;BME280;27385;51.096;17.190;2023-12-14T00:10:57;99087.48;;;5.05;100.00
41706;BME280;27385;51.096;17.190;2023-12-14T00:13:53;99091.48;;;5.02;100.00
41706;BME280;27385;51.096;17.190;2023-12-14T00:16:44;99094.53;;;5.02;100.00
41706;BME280;27385;51.096;17.190;2023-12-14T00:19:35;99097.52;;;5.02;100.00
41706;BME280;27385;51.096;17.190;2023-12-14T00:22:26;99106.87;;;5.02;100.00
41706;BME280;27385;51.096;17.190;2023-12-14T00:25:17;99110.62;;;4.97;100.00
41706;BME280;27385;51.096;17.190;2023-12-14T00:28:08;99118.44;;;4.98;100.00
41706;BME280;27385;51.096;17.190;2023-12-14T00:30:59;99118.80;;;4.99;100.00
41706;BME280;27385;51.096;17.190;2023-12-14T00:33:54;99121.39;;;4.97;100.00
41706;BME280;27385;51.096;17.190;2023-12-14T00:36:45;99124.86;;;4.96;100.00
41706;BME280;27385;51.096;17.190;2023-12-14T00:39:36;99127.96;;;4.97;100.00
41706;BME280;27385;51.096;17.190;2023-12-14T00:42:27;99131.67;;;4.98;100.00
41706;BME280;27385;51.096;17.190;2023-12-14T00:45:18;99136.00;;;5.01;100.00
41706;BME280;27385;51.096;17.190;2023-12-14T00:48:09;99141.02;;;5.02;100.00
41706;BME280;27385;51.096;17.190;2023-12-14T00:51:00;99142.94;;;5.02;100.00
41706;BME280;27385;51.096;17.190;2023-12-14T00:53:52;99147.39;;;5.04;100.00
41706;BME280;27385;51.096;17.190;2023-12-14T00:56:43;99150.20;;;5.06;100.00
41706;BME280;27385;51.096;17.190;2023-12-14T00:59:34;99157.48;;;5.07;100.00
41706;BME280;27385;51.096;17.190;2023-12-14T01:02:25;99160.89;;;5.09;100.00
41706;BME280;27385;51.096;17.190;2023-12-14T01:05:17;99161.89;;;5.07;100.00
41706;BME280;27385;51.096;17.190;2023-12-14T01:08:08;99162.90;;;5.05;100.00
41706;BME280;27385;51.096;17.190;2023-12-14T01:10:59;99166.84;;;5.03;100.00
41706;BME280;27385;51.096;17.190;2023-12-14T01:13:50;99168.86;;;5.03;100.00
41706;BME280;27385;51.096;17.190;2023-12-14T01:16:42;99172.41;;;5.05;100.00
41706;BME280;27385;51.096;17.190;2023-12-14T01:19:33;99174.48;;;5.06;100.00
41706;BME280;27385;51.096;17.190;2023-12-14T01:22:24;99173.90;;;5.06;100.00
41706;BME280;27385;51.096;17.190;2023-12-14T01:25:16;99171.68;;;5.06;100.00
41706;BME280;27385;51.096;17.190;2023-12-14T01:28:07;99176.26;;;5.08;100.00
41706;BME280;27385;51.096;17.190;2023-12-14T01:30:58;99173.46;;;5.07;100.00
41706;BME280;27385;51.096;17.190;2023-12-14T01:33:49;99175.04;;;5.06;100.00
41706;BME280;27385;51.096;17.190;2023-12-14T01:36:40;99175.25;;;5.06;100.00
41706;BME280;27385;51.096;17.190;2023-12-14T01:39:32;99174.02;;;5.07;100.00
41706;BME280;27385;51.096;17.190;2023-12-14T01:42:22;99177.96;;;5.04;100.00
41706;BME280;27385;51.096;17.190;2023-12-14T01:45:13;99182.78;;;5.04;100.00
41706;BME280;27385;51.096;17.190;2023-12-14T01:48:06;99180.80;;;5.03;100.00
41706;BME280;27385;51.096;17.190;2023-12-14T01:50:57;99179.62;;;4.97;100.00
41706;BME280;27385;51.096;17.190;2023-12-14T01:53:48;99186.77;;;4.95;100.00
41706;BME280;27385;51.096;17.190;2023-12-14T01:56:39;99191.58;;;4.95;100.00
41706;BME280;27385;51.096;17.190;2023-12-14T01:59:31;99189.65;;;4.94;100.00
41706;BME280;27385;51.096;17.190;2023-12-14T02:05:29;99190.96;;;4.88;100.00
41706;BME280;27385;51.096;17.190;2023-12-14T02:08:22;99190.61;;;4.90;100.00
41706;BME280;27385;51.096;17.190;2023-12-14T02:11:14;99192.97;;;4.92;100.00
41706;BME280;27385;51.096;17.190;2023-12-14T02:14:06;99188.98;;;4.93;100.00
41706;BME280;27385;51.096;17.190;2023-12-14T02:16:59;99187.52;;;4.95;100.00
41706;BME280;27385;51.096;17.190;2023-12-14T02:19:50;99185.67;;;4.98;100.00
41706;BME280;27385;51.096;17.190;2023-12-14T02:22:51;99186.71;;;4.99;100.00
41706;BME280;27385;51.096;17.190;2023-12-14T02:25:42;99192.42;;;4.99;100.00
41706;BME280;27385;51.096;17.190;2023-12-14T02:28:32;99197.15;;;4.99;100.00
41706;BME280;27385;51.096;17.190;2023-12-14T02:31:24;99197.54;;;5.00;100.00
41706;BME280;27385;51.096;17.190;2023-12-14T02:34:16;99207.09;;;5.00;100.00
41706;BME280;27385;51.096;17.190;2023-12-14T02:37:08;99211.35;;;5.02;100.00
41706;BME280;27385;51.096;17.190;2023-12-14T02:40:00;99210.83;;;5.03;100.00
41706;BME280;27385;51.096;17.190;2023-12-14T02:42:52;99213.86;;;5.03;100.00
41706;BME280;27385;51.096;17.190;2023-12-14T02:45:43;99217.50;;;5.04;100.00
41706;BME280;27385;51.096;17.190;2023-12-14T02:48:34;99218.23;;;5.05;100.00
41706;BME280;27385;51.096;17.190;2023-12-14T02:51:23;99217.95;;;5.06;100.00
41706;BME280;27385;51.096;17.190;2023-12-14T02:54:14;99215.61;;;5.07;100.00
41706;BME280;27385;51.096;17.190;2023-12-14T02:57:03;99219.04;;;5.09;100.00
41706;BME280;27385;51.096;17.190;2023-12-14T02:59:54;99221.33;;;5.09;100.00
41706;BME280;27385;51.096;17.190;2023-12-14T03:02:43;99222.02;;;5.10;100.00
41706;BME280;27385;51.096;17.190;2023-12-14T03:05:34;99225.85;;;5.04;100.00
41706;BME280;27385;51.096;17.190;2023-12-14T03:08:25;99231.89;;;5.02;100.00
41706;BME280;27385;51.096;17.190;2023-12-14T03:11:23;99233.38;;;5.03;100.00
41706;BME280;27385;51.096;17.190;2023-12-14T03:14:14;99233.63;;;5.05;100.00
41706;BME280;27385;51.096;17.190;2023-12-14T03:17:07;99239.12;;;5.08;100.00
41706;BME280;27385;51.096;17.190;2023-12-14T03:20:02;99243.09;;;5.06;100.00
41706;BME280;27385;51.096;17.190;2023-12-14T03:22:55;99248.15;;;5.01;100.00
41706;BME280;27385;51.096;17.190;2023-12-14T03:25:46;99251.19;;;5.01;100.00
41706;BME280;27385;51.096;17.190;2023-12-14T03:28:37;99260.38;;;4.99;100.00
41706;BME280;27385;51.096;17.190;2023-12-14T03:31:28;99269.14;;;4.99;100.00
41706;BME280;27385;51.096;17.190;2023-12-14T03:34:20;99274.45;;;4.99;100.00
41706;BME280;27385;51.096;17.190;2023-12-14T03:37:10;99279.74;;;4.97;100.00
41706;BME280;27385;51.096;17.190;2023-12-14T03:39:59;99283.48;;;4.97;100.00
41706;BME280;27385;51.096;17.190;2023-12-14T03:42:50;99288.05;;;4.95;100.00
41706;BME280;27385;51.096;17.190;2023-12-14T03:45:39;99285.95;;;4.92;100.00
41706;BME280;27385;51.096;17.190;2023-12-14T03:48:30;99290.91;;;4.91;100.00
41706;BME280;27385;51.096;17.190;2023-12-14T03:51:21;99289.96;;;4.91;100.00
41706;BME280;27385;51.096;17.190;2023-12-14T03:54:12;99295.02;;;4.93;100.00
41706;BME280;27385;51.096;17.190;2023-12-14T03:57:03;99295.91;;;4.92;100.00
41706;BME280;27385;51.096;17.190;2023-12-14T03:59:54;99301.14;;;4.94;100.00
41706;BME280;27385;51.096;17.190;2023-12-14T04:02:45;99308.48;;;4.94;100.00
41706;BME280;27385;51.096;17.190;2023-12-14T04:05:37;99307.59;;;4.95;100.00
41706;BME280;27385;51.096;17.190;2023-12-14T04:08:28;99311.40;;;4.96;100.00
41706;BME280;27385;51.096;17.190;2023-12-14T04:11:19;99317.63;;;4.98;100.00
41706;BME280;27385;51.096;17.190;2023-12-14T04:14:11;99321.05;;;5.00;100.00
41706;BME280;27385;51.096;17.190;2023-12-14T04:17:02;99323.77;;;5.00;100.00
41706;BME280;27385;51.096;17.190;2023-12-14T04:19:53;99334.75;;;5.02;100.00
41706;BME280;27385;51.096;17.190;2023-12-14T04:22:44;99338.03;;;5.03;100.00
41706;BME280;27385;51.096;17.190;2023-12-14T04:25:35;99344.35;;;5.04;100.00
41706;BME280;27385;51.096;17.190;2023-12-14T04:28:25;99348.27;;;4.99;100.00
41706;BME280;27385;51.096;17.190;2023-12-14T04:31:17;99351.11;;;4.93;100.00
41706;BME280;27385;51.096;17.190;2023-12-14T04:34:07;99352.80;;;4.89;100.00
41706;BME280;27385;51.096;17.190;2023-12-14T04:37:04;99355.45;;;4.88;100.00
41706;BME280;27385;51.096;17.190;2023-12-14T04:39:54;99358.58;;;4.89;100.00
41706;BME280;27385;51.096;17.190;2023-12-14T04:42:45;99360.56;;;4.90;100.00
41706;BME280;27385;51.096;17.190;2023-12-14T04:45:36;99363.38;;;4.91;100.00
41706;BME280;27385;51.096;17.190;2023-12-14T04:48:27;99369.24;;;4.89;100.00
41706;BME280;27385;51.096;17.190;2023-12-14T04:51:18;99371.09;;;4.85;100.00
41706;BME280;27385;51.096;17.190;2023-12-14T04:54:09;99376.06;;;4.85;100.00
41706;BME280;27385;51.096;17.190;2023-12-14T04:57:00;99376.84;;;4.85;100.00
41706;BME280;27385;51.096;17.190;2023-12-14T04:59:49;99375.60;;;4.88;100.00
41706;BME280;27385;51.096;17.190;2023-12-14T05:02:40;99377.58;;;4.88;100.00
41706;BME280;27385;51.096;17.190;2023-12-14T05:05:31;99378.02;;;4.90;100.00
41706;BME280;27385;51.096;17.190;2023-12-14T05:08:22;99383.34;;;4.88;100.00
41706;BME280;27385;51.096;17.190;2023-12-14T05:11:13;99388.64;;;4.86;100.00
41706;BME280;27385;51.096;17.190;2023-12-14T05:14:04;99393.66;;;4.87;100.00
41706;BME280;27385;51.096;17.190;2023-12-14T05:16:55;99393.00;;;4.88;100.00
41706;BME280;27385;51.096;17.190;2023-12-14T05:19:44;99399.69;;;4.86;100.00
41706;BME280;27385;51.096;17.190;2023-12-14T05:22:35;99401.90;;;4.86;100.00
41706;BME280;27385;51.096;17.190;2023-12-14T05:25:26;99400.23;;;4.88;100.00
41706;BME280;27385;51.096;17.190;2023-12-14T05:28:17;99402.64;;;4.91;100.00
41706;BME280;27385;51.096;17.190;2023-12-14T05:31:08;99410.32;;;4.91;100.00
41706;BME280;27385;51.096;17.190;2023-12-14T05:33:57;99410.20;;;4.90;100.00
41706;BME280;27385;51.096;17.190;2023-12-14T05:36:48;99420.10;;;4.84;100.00
41706;BME280;27385;51.096;17.190;2023-12-14T05:39:42;99422.09;;;4.82;100.00
41706;BME280;27385;51.096;17.190;2023-12-14T05:42:34;99425.11;;;4.83;100.00
41706;BME280;27385;51.096;17.190;2023-12-14T05:45:25;99429.69;;;4.84;100.00
41706;BME280;27385;51.096;17.190;2023-12-14T05:48:16;99431.43;;;4.85;100.00
41706;BME280;27385;51.096;17.190;2023-12-14T05:51:07;99434.92;;;4.81;100.00
41706;BME280;27385;51.096;17.190;2023-12-14T05:53:58;99439.27;;;4.79;100.00
41706;BME280;27385;51.096;17.190;2023-12-14T05:56:49;99451.34;;;4.80;100.00
41706;BME280;27385;51.096;17.190;2023-12-14T05:59:40;99455.39;;;4.81;100.00
41706;BME280;27385;51.096;17.190;2023-12-14T06:02:32;99457.65;;;4.82;100.00
41706;BME280;27385;51.096;17.190;2023-12-14T06:05:23;99464.38;;;4.82;100.00
41706;BME280;27385;51.096;17.190;2023-12-14T06:08:14;99468.76;;;4.81;100.00
41706;BME280;27385;51.096;17.190;2023-12-14T06:11:05;99473.95;;;4.79;100.00
41706;BME280;27385;51.096;17.190;2023-12-14T06:13:56;99476.02;;;4.79;100.00
41706;BME280;27385;51.096;17.190;2023-12-14T06:16:47;99477.52;;;4.81;100.00
41706;BME280;27385;51.096;17.190;2023-12-14T06:19:38;99473.21;;;4.80;100.00
41706;BME280;27385;51.096;17.190;2023-12-14T06:22:29;99476.29;;;4.78;100.00
41706;BME280;27385;51.096;17.190;2023-12-14T06:25:20;99481.63;;;4.77;100.00
41706;BME280;27385;51.096;17.190;2023-12-14T06:28:11;99485.35;;;4.77;100.00
41706;BME280;27385;51.096;17.190;2023-12-14T06:31:02;99491.79;;;4.76;100.00
41706;BME280;27385;51.096;17.190;2023-12-14T06:33:53;99492.15;;;4.74;100.00
41706;BME280;27385;51.096;17.190;2023-12-14T06:36:44;99496.92;;;4.78;100.00
41706;BME280;27385;51.096;17.190;2023-12-14T06:39:35;99498.42;;;4.78;100.00
41706;BME280;27385;51.096;17.190;2023-12-14T06:42:28;99497.41;;;4.77;100.00
41706;BME280;27385;51.096;17.190;2023-12-14T06:45:20;99506.45;;;4.75;100.00
41706;BME280;27385;51.096;17.190;2023-12-14T06:48:11;99518.21;;;4.75;100.00
41706;BME280;27385;51.096;17.190;2023-12-14T06:51:01;99522.63;;;4.73;100.00
41706;BME280;27385;51.096;17.190;2023-12-14T06:53:52;99530.06;;;4.73;100.00
41706;BME280;27385;51.096;17.190;2023-12-14T06:56:43;99535.60;;;4.75;100.00
41706;BME280;27385;51.096;17.190;2023-12-14T06:59:34;99540.16;;;4.75;100.00
41706;BME280;27385;51.096;17.190;2023-12-14T07:02:25;99545.52;;;4.75;100.00
41706;BME280;27385;51.096;17.190;2023-12-14T07:05:16;99551.41;;;4.71;100.00
41706;BME280;27385;51.096;17.190;2023-12-14T07:08:07;99555.95;;;4.66;100.00
41706;BME280;27385;51.096;17.190;2023-12-14T07:10:58;99551.72;;;4.63;100.00
41706;BME280;27385;51.096;17.190;2023-12-14T07:13:49;99559.13;;;4.64;100.00
41706;BME280;27385;51.096;17.190;2023-12-14T07:16:38;99566.19;;;4.63;100.00
41706;BME280;27385;51.096;17.190;2023-12-14T07:19:29;99569.86;;;4.62;100.00
41706;BME280;27385;51.096;17.190;2023-12-14T07:22:21;99582.46;;;4.63;100.00
41706;BME280;27385;51.096;17.190;2023-12-14T07:25:12;99585.56;;;4.62;100.00
41706;BME280;27385;51.096;17.190;2023-12-14T07:28:03;99589.28;;;4.62;100.00
41706;BME280;27385;51.096;17.190;2023-12-14T07:30:54;99594.20;;;4.62;100.00
41706;BME280;27385;51.096;17.190;2023-12-14T07:33:46;99598.18;;;4.60;100.00
41706;BME280;27385;51.096;17.190;2023-12-14T07:36:37;99596.63;;;4.62;100.00
41706;BME280;27385;51.096;17.190;2023-12-14T07:39:28;99600.84;;;4.63;100.00
41706;BME280;27385;51.096;17.190;2023-12-14T07:42:19;99602.75;;;4.65;100.00
41706;BME280;27385;51.096;17.190;2023-12-14T07:45:10;99608.67;;;4.63;100.00
41706;BME280;27385;51.096;17.190;2023-12-14T07:48:01;99619.51;;;4.61;100.00
41706;BME280;27385;51.096;17.190;2023-12-14T07:50:53;99621.41;;;4.62;100.00
41706;BME280;27385;51.096;17.190;2023-12-14T07:53:44;99623.81;;;4.62;100.00
41706;BME280;27385;51.096;17.190;2023-12-14T07:56:36;99632.05;;;4.63;100.00
41706;BME280;27385;51.096;17.190;2023-12-14T07:59:26;99637.54;;;4.62;100.00
41706;BME280;27385;51.096;17.190;2023-12-14T08:02:19;99644.05;;;4.61;100.00
41706;BME280;27385;51.096;17.190;2023-12-14T08:05:10;99651.58;;;4.58;100.00
41706;BME280;27385;51.096;17.190;2023-12-14T08:08:01;99652.95;;;4.57;100.00
41706;BME280;27385;51.096;17.190;2023-12-14T08:10:52;99657.91;;;4.58;100.00
41706;BME280;27385;51.096;17.190;2023-12-14T08:13:43;99657.98;;;4.58;100.00
41706;BME280;27385;51.096;17.190;2023-12-14T08:16:34;99657.79;;;4.59;100.00
41706;BME280;27385;51.096;17.190;2023-12-14T08:19:25;99660.41;;;4.61;100.00
41706;BME280;27385;51.096;17.190;2023-12-14T08:22:16;99665.02;;;4.62;100.00
41706;BME280;27385;51.096;17.190;2023-12-14T08:25:08;99673.05;;;4.63;100.00
41706;BME280;27385;51.096;17.190;2023-12-14T08:27:59;99669.98;;;4.65;100.00
41706;BME280;27385;51.096;17.190;2023-12-14T08:30:50;99667.88;;;4.68;100.00
41706;BME280;27385;51.096;17.190;2023-12-14T08:33:42;99674.75;;;4.70;100.00
41706;BME280;27385;51.096;17.190;2023-12-14T08:36:32;99681.46;;;4.70;100.00
41706;BME280;27385;51.096;17.190;2023-12-14T08:39:23;99686.11;;;4.70;100.00
41706;BME280;27385;51.096;17.190;2023-12-14T08:42:16;99695.00;;;4.71;100.00
41706;BME280;27385;51.096;17.190;2023-12-14T08:45:09;99699.72;;;4.68;100.00
41706;BME280;27385;51.096;17.190;2023-12-14T08:48:02;99714.73;;;4.63;100.00
41706;BME280;27385;51.096;17.190;2023-12-14T08:50:54;99719.81;;;4.61;100.00
41706;BME280;27385;51.096;17.190;2023-12-14T08:53:45;99725.39;;;4.61;100.00
41706;BME280;27385;51.096;17.190;2023-12-14T08:56:36;99730.92;;;4.64;100.00
41706;BME280;27385;51.096;17.190;2023-12-14T08:59:27;99738.60;;;4.61;100.00
41706;BME280;27385;51.096;17.190;2023-12-14T09:02:18;99747.23;;;4.63;100.00
41706;BME280;27385;51.096;17.190;2023-12-14T09:05:09;99749.17;;;4.63;100.00
41706;BME280;27385;51.096;17.190;2023-12-14T09:08:00;99749.98;;;4.63;100.00
41706;BME280;27385;51.096;17.190;2023-12-14T09:10:51;99751.88;;;4.63;100.00
41706;BME280;27385;51.096;17.190;2023-12-14T09:13:42;99751.83;;;4.60;100.00
41706;BME280;27385;51.096;17.190;2023-12-14T09:16:35;99753.54;;;4.59;100.00
41706;BME280;27385;51.096;17.190;2023-12-14T09:19:26;99758.16;;;4.60;100.00
41706;BME280;27385;51.096;17.190;2023-12-14T09:22:17;99761.30;;;4.62;100.00
41706;BME280;27385;51.096;17.190;2023-12-14T09:25:09;99762.85;;;4.63;100.00
41706;BME280;27385;51.096;17.190;2023-12-14T09:28:00;99767.30;;;4.64;100.00
41706;BME280;27385;51.096;17.190;2023-12-14T09:30:52;99768.81;;;4.64;100.00
41706;BME280;27385;51.096;17.190;2023-12-14T09:33:43;99769.52;;;4.67;100.00
41706;BME280;27385;51.096;17.190;2023-12-14T09:36:34;99771.58;;;4.69;100.00
41706;BME280;27385;51.096;17.190;2023-12-14T09:39:25;99776.14;;;4.67;100.00
41706;BME280;27385;51.096;17.190;2023-12-14T09:42:19;99777.04;;;4.64;100.00
41706;BME280;27385;51.096;17.190;2023-12-14T09:45:11;99774.83;;;4.64;100.00
41706;BME280;27385;51.096;17.190;2023-12-14T09:48:02;99779.73;;;4.62;100.00
41706;BME280;27385;51.096;17.190;2023-12-14T09:50:54;99782.94;;;4.63;100.00
41706;BME280;27385;51.096;17.190;2023-12-14T09:53:45;99789.42;;;4.64;100.00
41706;BME280;27385;51.096;17.190;2023-12-14T09:56:36;99791.64;;;4.64;100.00
41706;BME280;27385;51.096;17.190;2023-12-14T09:59:37;99785.21;;;4.61;100.00
41706;BME280;27385;51.096;17.190;2023-12-14T10:02:29;99788.83;;;4.59;100.00
41706;BME280;27385;51.096;17.190;2023-12-14T10:05:20;99791.98;;;4.59;100.00
41706;BME280;27385;51.096;17.190;2023-12-14T10:08:11;99794.93;;;4.58;100.00
41706;BME280;27385;51.096;17.190;2023-12-14T10:11:02;99793.72;;;4.59;100.00
41706;BME280;27385;51.096;17.190;2023-12-14T10:14:19;99798.04;;;4.62;100.00
41706;BME280;27385;51.096;17.190;2023-12-14T10:17:22;99797.82;;;4.64;100.00
41706;BME280;27385;51.096;17.190;2023-12-14T10:20:22;99795.80;;;4.63;100.00
41706;BME280;27385;51.096;17.190;2023-12-14T10:23:15;99796.02;;;4.59;100.00
41706;BME280;27385;51.096;17.190;2023-12-14T10:26:07;99798.52;;;4.57;100.00
41706;BME280;27385;51.096;17.190;2023-12-14T10:28:58;99800.19;;;4.57;100.00
41706;BME280;27385;51.096;17.190;2023-12-14T10:31:49;99803.36;;;4.59;100.00
41706;BME280;27385;51.096;17.190;2023-12-14T10:34:41;99808.64;;;4.62;100.00
41706;BME280;27385;51.096;17.190;2023-12-14T10:37:33;99808.52;;;4.65;100.00
41706;BME280;27385;51.096;17.190;2023-12-14T10:40:28;99809.27;;;4.68;100.00
41706;BME280;27385;51.096;17.190;2023-12-14T10:43:20;99812.45;;;4.70;100.00
41706;BME280;27385;51.096;17.190;2023-12-14T10:46:12;99817.36;;;4.74;100.00
41706;BME280;27385;51.096;17.190;2023-12-14T10:49:04;99820.29;;;4.74;100.00
41706;BME280;27385;51.096;17.190;2023-12-14T10:51:57;99828.34;;;4.74;100.00
41706;BME280;27385;51.096;17.190;2023-12-14T10:54:52;99831.65;;;4.70;100.00
41706;BME280;27385;51.096;17.190;2023-12-14T10:57:43;99833.29;;;4.64;100.00
41706;BME280;27385;51.096;17.190;2023-12-14T11:00:36;99841.29;;;4.58;100.00
41706;BME280;27385;51.096;17.190;2023-12-14T11:03:30;99845.36;;;4.56;100.00
41706;BME280;27385;51.096;17.190;2023-12-14T11:06:35;99846.71;;;4.57;100.00
41706;BME280;27385;51.096;17.190;2023-12-14T11:09:27;99850.03;;;4.57;100.00
41706;BME280;27385;51.096;17.190;2023-12-14T11:12:20;99854.77;;;4.57;100.00
41706;BME280;27385;51.096;17.190;2023-12-14T11:15:13;99858.86;;;4.60;100.00
41706;BME280;27385;51.096;17.190;2023-12-14T11:18:26;99863.27;;;4.60;100.00
41706;BME280;27385;51.096;17.190;2023-12-14T11:21:20;99863.61;;;4.60;100.00
41706;BME280;27385;51.096;17.190;2023-12-14T11:24:15;99866.02;;;4.56;100.00
41706;BME280;27385;51.096;17.190;2023-12-14T11:27:07;99874.54;;;4.57;100.00
41706;BME280;27385;51.096;17.190;2023-12-14T11:29:59;99878.73;;;4.59;100.00
41706;BME280;27385;51.096;17.190;2023-12-14T11:32:50;99884.59;;;4.58;100.00
41706;BME280;27385;51.096;17.190;2023-12-14T11:35:42;99889.92;;;4.57;100.00
41706;BME280;27385;51.096;17.190;2023-12-14T11:38:33;99887.78;;;4.57;100.00
41706;BME280;27385;51.096;17.190;2023-12-14T11:41:24;99890.35;;;4.58;100.00
41706;BME280;27385;51.096;17.190;2023-12-14T11:44:26;99891.73;;;4.59;100.00
41706;BME280;27385;51.096;17.190;2023-12-14T11:47:17;99894.86;;;4.61;100.00
41706;BME280;27385;51.096;17.190;2023-12-14T11:53:01;99899.52;;;4.63;100.00
41706;BME280;27385;51.096;17.190;2023-12-14T11:55:53;99909.09;;;4.65;100.00
41706;BME280;27385;51.096;17.190;2023-12-14T11:58:44;99913.64;;;4.68;100.00
41706;BME280;27385;51.096;17.190;2023-12-14T12:01:37;99915.23;;;4.68;100.00
41706;BME280;27385;51.096;17.190;2023-12-14T12:04:28;99920.25;;;4.64;100.00
41706;BME280;27385;51.096;17.190;2023-12-14T12:07:19;99921.25;;;4.56;100.00
41706;BME280;27385;51.096;17.190;2023-12-14T12:10:11;99929.85;;;4.49;100.00
41706;BME280;27385;51.096;17.190;2023-12-14T12:13:04;99928.70;;;4.45;100.00
41706;BME280;27385;51.096;17.190;2023-12-14T12:15:55;99927.83;;;4.46;100.00
41706;BME280;27385;51.096;17.190;2023-12-14T12:18:45;99925.33;;;4.43;100.00
41706;BME280;27385;51.096;17.190;2023-12-14T12:21:36;99922.50;;;4.40;100.00
41706;BME280;27385;51.096;17.190;2023-12-14T12:24:27;99926.32;;;4.39;100.00
41706;BME280;27385;51.096;17.190;2023-12-14T12:27:18;99928.39;;;4.38;100.00
41706;BME280;27385;51.096;17.190;2023-12-14T12:30:11;99930.39;;;4.42;100.00
41706;BME280;27385;51.096;17.190;2023-12-14T12:33:02;99933.04;;;4.46;100.00
41706;BME280;27385;51.096;17.190;2023-12-14T12:35:53;99938.08;;;4.46;100.00
41706;BME280;27385;51.096;17.190;2023-12-14T12:38:44;99940.40;;;4.45;100.00
41706;BME280;27385;51.096;17.190;2023-12-14T12:41:35;99943.04;;;4.44;100.00
41706;BME280;27385;51.096;17.190;2023-12-14T12:44:26;99948.14;;;4.45;100.00
41706;BME280;27385;51.096;17.190;2023-12-14T12:47:17;99958.14;;;4.44;100.00
41706;BME280;27385;51.096;17.190;2023-12-14T12:50:07;99963.19;;;4.41;100.00
41706;BME280;27385;51.096;17.190;2023-12-14T12:52:58;99965.08;;;4.41;100.00
41706;BME280;27385;51.096;17.190;2023-12-14T12:55:49;99966.14;;;4.40;100.00
41706;BME280;27385;51.096;17.190;2023-12-14T12:58:40;99969.13;;;4.38;100.00
41706;BME280;27385;51.096;17.190;2023-12-14T13:01:31;99972.36;;;4.39;100.00
41706;BME280;27385;51.096;17.190;2023-12-14T13:04:22;99972.52;;;4.36;100.00
41706;BME280;27385;51.096;17.190;2023-12-14T13:07:15;99973.39;;;4.31;100.00
41706;BME280;27385;51.096;17.190;2023-12-14T13:10:09;99973.34;;;4.28;100.00
41706;BME280;27385;51.096;17.190;2023-12-14T13:13:00;99970.29;;;4.24;100.00
41706;BME280;27385;51.096;17.190;2023-12-14T13:15:51;99968.86;;;4.20;100.00
41706;BME280;27385;51.096;17.190;2023-12-14T13:18:43;99970.62;;;4.21;100.00
41706;BME280;27385;51.096;17.190;2023-12-14T13:21:34;99975.79;;;4.23;100.00
41706;BME280;27385;51.096;17.190;2023-12-14T13:24:25;99977.63;;;4.25;100.00
41706;BME280;27385;51.096;17.190;2023-12-14T13:27:16;99986.20;;;4.26;100.00
41706;BME280;27385;51.096;17.190;2023-12-14T13:30:10;99991.55;;;4.26;100.00
41706;BME280;27385;51.096;17.190;2023-12-14T13:33:03;100003.66;;;4.25;100.00
41706;BME280;27385;51.096;17.190;2023-12-14T13:35:56;100010.11;;;4.23;100.00
41706;BME280;27385;51.096;17.190;2023-12-14T13:38:47;100018.21;;;4.22;100.00
41706;BME280;27385;51.096;17.190;2023-12-14T13:41:37;100020.23;;;4.21;100.00
41706;BME280;27385;51.096;17.190;2023-12-14T13:44:28;100027.88;;;4.18;100.00
41706;BME280;27385;51.096;17.190;2023-12-14T13:47:19;100035.21;;;4.13;100.00
41706;BME280;27385;51.096;17.190;2023-12-14T13:50:10;100031.31;;;4.12;100.00
41706;BME280;27385;51.096;17.190;2023-12-14T13:53:01;100034.54;;;4.12;100.00
41706;BME280;27385;51.096;17.190;2023-12-14T13:55:52;100044.15;;;4.12;100.00
41706;BME280;27385;51.096;17.190;2023-12-14T13:58:43;100053.85;;;4.13;100.00
41706;BME280;27385;51.096;17.190;2023-12-14T14:01:34;100052.05;;;4.09;100.00
41706;BME280;27385;51.096;17.190;2023-12-14T14:04:25;100055.63;;;4.09;100.00
41706;BME280;27385;51.096;17.190;2023-12-14T14:07:15;100061.35;;;4.07;100.00
41706;BME280;27385;51.096;17.190;2023-12-14T14:10:08;100065.64;;;4.06;100.00
41706;BME280;27385;51.096;17.190;2023-12-14T14:12:59;100075.18;;;4.03;100.00
41706;BME280;27385;51.096;17.190;2023-12-14T14:15:50;100077.16;;;4.01;100.00
41706;BME280;27385;51.096;17.190;2023-12-14T14:18:41;100082.08;;;3.97;100.00
41706;BME280;27385;51.096;17.190;2023-12-14T14:21:30;100088.45;;;3.94;100.00
41706;BME280;27385;51.096;17.190;2023-12-14T14:24:21;100098.16;;;3.89;100.00
41706;BME280;27385;51.096;17.190;2023-12-14T14:27:12;100097.89;;;3.85;100.00
41706;BME280;27385;51.096;17.190;2023-12-14T14:30:04;100100.84;;;3.81;100.00
41706;BME280;27385;51.096;17.190;2023-12-14T14:32:55;100107.71;;;3.78;100.00
41706;BME280;27385;51.096;17.190;2023-12-14T14:35:47;100118.66;;;3.73;100.00
41706;BME280;27385;51.096;17.190;2023-12-14T14:38:37;100121.36;;;3.70;100.00
41706;BME280;27385;51.096;17.190;2023-12-14T14:41:29;100125.06;;;3.66;100.00
41706;BME280;27385;51.096;17.190;2023-12-14T14:44:20;100129.64;;;3.63;100.00
41706;BME280;27385;51.096;17.190;2023-12-14T14:47:11;100146.73;;;3.61;100.00
41706;BME280;27385;51.096;17.190;2023-12-14T14:50:03;100152.05;;;3.60;100.00
41706;BME280;27385;51.096;17.190;2023-12-14T14:52:56;100158.30;;;3.59;100.00
41706;BME280;27385;51.096;17.190;2023-12-14T14:55:47;100163.55;;;3.58;100.00
41706;BME280;27385;51.096;17.190;2023-12-14T14:58:42;100169.01;;;3.57;100.00
41706;BME280;27385;51.096;17.190;2023-12-14T15:01:35;100175.72;;;3.56;100.00